Time;durP1;ratioP1;P1;durP2;ratioP2;P2;SDS_P1;SDS_P2;PMS_P1;PMS_P2;Temp;Humidity;BMP_temperature;BMP_pressure;BME280_temperature;BME280_humidity;BME280_pressure;Samples;Min_cycle;Max_cycle;Signal;HPM_P1;HPM_P2
2022/11/19 00:00:27;;;;;;;4.55;2.13;;;20.80;61.30;;;;;;5032151;28;20679;-45
2022/11/19 00:02:58;;;;;;;5.10;2.25;;;20.80;61.30;;;;;;5014655;28;20262;-46
2022/11/19 00:05:29;;;;;;;6.97;2.28;;;20.80;61.40;;;;;;5012907;28;20572;-54
2022/11/19 00:08:01;;;;;;;5.63;1.92;;;20.80;61.40;;;;;;5028891;28;20211;-50
2022/11/19 00:10:32;;;;;;;5.18;2.10;;;20.80;61.40;;;;;;5032391;28;20200;-46
2022/11/19 00:13:01;;;;;;;6.07;2.28;;;20.80;61.30;;;;;;5032101;28;20220;-46
2022/11/19 00:15:33;;;;;;;6.13;2.25;;;20.80;61.30;;;;;;5031987;28;20196;-48
2022/11/19 00:18:03;;;;;;;4.85;1.65;;;20.80;61.40;;;;;;5032454;28;20207;-47
2022/11/19 00:20:35;;;;;;;3.90;1.80;;;20.80;61.50;;;;;;5051589;28;20195;-46
2022/11/19 00:23:08;;;;;;;5.28;2.00;;;20.80;61.50;;;;;;5035052;28;20587;-55
2022/11/19 00:25:39;;;;;;;5.03;2.05;;;20.90;61.90;;;;;;5032497;28;20563;-46
2022/11/19 00:28:10;;;;;;;4.30;1.67;;;20.90;62.00;;;;;;5030849;28;20496;-47
2022/11/19 00:30:40;;;;;;;4.32;2.08;;;20.90;62.00;;;;;;5032048;28;20196;-50
2022/11/19 00:33:11;;;;;;;4.10;1.70;;;20.90;61.70;;;;;;5032041;28;20215;-46
2022/11/19 00:35:42;;;;;;;4.88;2.15;;;20.90;61.70;;;;;;5031797;28;20696;-47
2022/11/19 00:38:15;;;;;;;6.68;1.95;;;20.90;61.70;;;;;;5031210;28;20203;-47
2022/11/19 00:40:46;;;;;;;5.53;1.92;;;20.90;61.80;;;;;;5031389;28;20235;-49
2022/11/19 00:46:04;;;;;;;4.32;2.17;;;20.90;62.10;;;;;;5031180;28;20235;-47
2022/11/19 00:48:42;;;;;;;5.70;2.30;;;20.90;62.30;;;;;;5031100;28;20188;-47
2022/11/19 00:51:12;;;;;;;5.38;2.22;;;20.90;62.20;;;;;;5031386;28;20230;-46
2022/11/19 00:53:45;;;;;;;4.15;1.85;;;20.90;62.00;;;;;;5031726;28;20657;-48
2022/11/19 00:56:17;;;;;;;7.15;2.30;;;20.90;61.80;;;;;;5031216;28;20767;-50
2022/11/19 00:58:48;;;;;;;4.15;1.90;;;20.90;62.00;;;;;;5031136;28;20199;-49
2022/11/19 01:01:20;;;;;;;4.95;1.80;;;20.90;62.20;;;;;;5031085;28;20233;-46
2022/11/19 01:03:51;;;;;;;5.75;2.38;;;20.90;62.20;;;;;;5031020;28;20247;-48
2022/11/19 01:06:23;;;;;;;5.38;2.05;;;20.90;62.20;;;;;;5031509;28;20212;-47
2022/11/19 01:08:57;;;;;;;6.30;1.95;;;20.90;62.10;;;;;;5031792;28;20644;-50
2022/11/19 01:11:30;;;;;;;4.68;1.90;;;20.90;62.10;;;;;;5031709;28;20220;-47
2022/11/19 01:14:01;;;;;;;3.78;1.83;;;20.90;62.00;;;;;;5031305;28;20567;-49
2022/11/19 01:16:34;;;;;;;6.07;2.03;;;20.90;61.80;;;;;;5031482;28;20197;-49
2022/11/19 01:19:06;;;;;;;6.30;2.10;;;20.90;61.70;;;;;;5031275;28;20250;-46
2022/11/19 01:21:37;;;;;;;3.45;2.08;;;20.90;61.50;;;;;;5030818;28;20220;-48
2022/11/19 01:24:10;;;;;;;3.85;1.75;;;20.90;61.50;;;;;;5030813;28;20207;-48
2022/11/19 01:26:41;;;;;;;5.10;1.90;;;20.90;61.40;;;;;;5028108;28;20271;-48
2022/11/19 01:29:12;;;;;;;4.68;1.85;;;20.90;61.40;;;;;;5031852;28;20200;-51
2022/11/19 01:31:42;;;;;;;3.22;1.70;;;20.90;61.50;;;;;;5031138;28;20587;-46
2022/11/19 01:34:13;;;;;;;4.43;2.05;;;20.90;61.50;;;;;;5031278;28;20207;-45
2022/11/19 01:36:44;;;;;;;5.28;2.05;;;20.90;61.70;;;;;;5028633;28;20203;-45
2022/11/19 01:39:18;;;;;;;7.20;1.88;;;20.90;61.80;;;;;;5011670;28;20636;-46
2022/11/19 01:41:49;;;;;;;6.28;1.95;;;20.90;61.90;;;;;;5011496;28;20306;-48
2022/11/19 01:44:59;;;;;;;5.60;1.88;;;21.00;62.00;;;;;;5016590;28;20204;-46
2022/11/19 01:47:30;;;;;;;4.75;1.98;;;20.90;62.60;;;;;;5031224;28;20200;-47
2022/11/19 01:50:01;;;;;;;4.22;1.85;;;20.90;61.70;;;;;;5031264;28;20196;-50
2022/11/19 01:52:32;;;;;;;3.38;1.80;;;20.90;61.50;;;;;;5030711;28;20220;-47
2022/11/19 01:55:05;;;;;;;3.28;1.50;;;21.00;61.70;;;;;;5031073;28;20203;-47
2022/11/19 01:57:36;;;;;;;5.47;1.92;;;21.00;61.70;;;;;;5031209;28;20192;-45
2022/11/19 02:00:08;;;;;;;3.05;1.80;;;21.00;61.70;;;;;;5031293;28;20200;-46
2022/11/19 02:02:39;;;;;;;4.03;1.80;;;21.00;61.80;;;;;;5030842;28;20224;-48
2022/11/19 02:05:10;;;;;;;4.13;1.70;;;21.00;61.80;;;;;;5030988;28;20679;-48
2022/11/19 02:07:44;;;;;;;3.08;1.65;;;21.00;61.90;;;;;;5031194;28;20193;-47
2022/11/19 02:10:17;;;;;;;3.38;1.60;;;21.00;61.90;;;;;;5031239;28;20282;-47
2022/11/19 02:12:53;;;;;;;3.20;1.88;;;21.00;61.60;;;;;;5030768;28;20216;-49
2022/11/19 02:15:38;;;;;;;3.88;1.40;;;21.00;61.60;;;;;;5030790;28;20211;-46
2022/11/19 02:18:39;;;;;;;3.35;1.52;;;21.00;61.50;;;;;;5030802;28;20204;-48
2022/11/19 02:21:28;;;;;;;3.28;1.52;;;21.00;61.60;;;;;;5030451;28;20224;-48
2022/11/19 02:24:19;;;;;;;3.97;1.70;;;21.10;61.60;;;;;;5035107;28;20228;-45
2022/11/19 02:27:32;;;;;;;1.50;1.17;;;21.00;61.50;;;;;;5034924;28;20239;-47
2022/11/19 02:30:15;;;;;;;2.25;1.27;;;21.10;61.60;;;;;;5025267;28;20231;-46
2022/11/19 02:32:58;;;;;;;2.85;1.30;;;21.10;61.60;;;;;;5034420;28;20710;-49
2022/11/19 02:35:43;;;;;;;2.15;1.40;;;21.10;61.60;;;;;;5034900;28;20200;-45
2022/11/19 02:38:25;;;;;;;2.92;1.50;;;21.10;61.60;;;;;;5034245;28;20204;-47
2022/11/19 02:41:00;;;;;;;2.13;1.35;;;21.10;62.40;;;;;;5034036;28;20192;-47
2022/11/19 02:43:37;;;;;;;2.72;1.40;;;21.10;61.70;;;;;;5034288;28;20219;-46
2022/11/19 02:46:13;;;;;;;2.80;1.27;;;21.20;61.90;;;;;;5034596;28;20196;-47
2022/11/19 02:48:52;;;;;;;3.15;1.83;;;21.10;61.80;;;;;;5034320;28;20210;-47
2022/11/19 02:51:23;;;;;;;2.80;1.50;;;21.10;61.80;;;;;;5034372;28;20230;-46
2022/11/19 02:53:54;;;;;;;2.25;1.33;;;21.20;61.70;;;;;;5034018;28;20204;-46
2022/11/19 02:56:48;;;;;;;3.05;1.20;;;21.20;61.60;;;;;;5034148;28;20208;-50
2022/11/19 03:05:06;;;;;;;2.28;1.30;;;21.20;61.50;;;;;;5033955;28;20255;-46
2022/11/19 03:07:37;;;;;;;2.20;1.10;;;21.20;61.40;;;;;;5033940;28;20196;-47
2022/11/19 03:10:10;;;;;;;3.72;1.60;;;21.20;62.20;;;;;;5033904;28;20207;-46
2022/11/19 03:12:51;;;;;;;2.40;1.10;;;21.30;61.40;;;;;;5033765;28;20222;-46
2022/11/19 03:18:28;;;;;;;4.85;1.50;;;21.30;61.40;;;;;;5034151;28;20302;-48
2022/11/19 03:21:04;;;;;;;3.15;1.17;;;21.30;61.50;;;;;;5030338;28;20203;-46
2022/11/19 03:23:38;;;;;;;2.90;1.38;;;21.30;61.50;;;;;;5033612;28;20659;-46
2022/11/19 03:26:20;;;;;;;2.22;1.25;;;21.30;61.40;;;;;;5033586;28;20200;-47
2022/11/19 03:28:52;;;;;;;1.73;1.30;;;21.30;61.40;;;;;;5030087;28;20200;-46
2022/11/19 03:31:25;;;;;;;3.13;1.10;;;21.30;61.30;;;;;;5033303;28;20299;-50
2022/11/19 03:34:02;;;;;;;2.10;1.15;;;21.30;61.20;;;;;;5033157;28;21012;-47
2022/11/19 03:36:36;;;;;;;1.65;1.27;;;21.30;61.20;;;;;;5033347;28;20204;-46
2022/11/19 03:39:10;;;;;;;1.85;1.23;;;21.30;61.10;;;;;;5033297;28;20196;-46
2022/11/19 03:41:44;;;;;;;2.03;1.27;;;21.30;61.10;;;;;;5033151;28;20223;-47
2022/11/19 03:44:19;;;;;;;1.52;0.95;;;21.30;61.10;;;;;;5032783;28;20718;-47
2022/11/19 03:46:54;;;;;;;1.83;1.30;;;21.30;60.90;;;;;;5033247;28;20204;-45
2022/11/19 03:49:32;;;;;;;2.72;1.13;;;21.30;60.90;;;;;;5033756;28;20196;-46
2022/11/19 03:52:09;;;;;;;1.88;1.15;;;21.40;61.10;;;;;;5033080;28;20230;-45
2022/11/19 03:54:40;;;;;;;2.90;1.15;;;21.30;61.10;;;;;;5033472;28;20199;-44
2022/11/19 03:57:13;;;;;;;2.17;1.42;;;21.40;61.20;;;;;;5033094;28;20231;-46
2022/11/19 03:59:43;;;;;;;2.28;1.13;;;21.30;61.10;;;;;;5033160;28;20676;-46
2022/11/19 04:02:15;;;;;;;1.63;1.10;;;21.30;61.10;;;;;;5032951;28;20287;-57
2022/11/19 04:04:51;;;;;;;3.08;1.73;;;21.40;61.10;;;;;;5032880;28;20816;-65
2022/11/19 04:07:23;;;;;;;1.60;1.50;;;21.30;62.80;;;;;;5032729;28;20203;-47
2022/11/19 04:09:54;;;;;;;2.05;1.80;;;21.30;64.30;;;;;;5032618;28;20200;-50
2022/11/19 04:12:26;;;;;;;2.00;1.80;;;21.30;64.50;;;;;;5032389;28;20255;-54
2022/11/19 04:14:57;;;;;;;2.42;1.40;;;21.30;64.30;;;;;;5031895;28;20253;-46
2022/11/19 04:17:29;;;;;;;2.50;1.60;;;21.30;64.30;;;;;;5032479;28;20199;-46
2022/11/19 04:20:02;;;;;;;1.95;1.48;;;21.30;64.00;;;;;;5032377;28;20203;-49
2022/11/19 04:22:33;;;;;;;2.28;1.55;;;21.30;63.80;;;;;;5031314;28;20228;-46
2022/11/19 04:25:04;;;;;;;2.65;1.42;;;21.30;64.00;;;;;;5031156;28;20223;-47
2022/11/19 04:27:35;;;;;;;1.92;1.40;;;21.30;64.00;;;;;;5031356;28;20234;-52
2022/11/19 04:30:06;;;;;;;2.38;1.52;;;21.30;63.90;;;;;;5031586;28;20192;-54
2022/11/19 04:32:37;;;;;;;2.05;1.42;;;21.30;63.70;;;;;;5030880;28;20222;-44
2022/11/19 04:35:11;;;;;;;2.40;1.75;;;21.30;63.80;;;;;;5031090;28;20239;-50
2022/11/19 04:37:42;;;;;;;2.42;1.48;;;21.40;63.80;;;;;;5030768;28;20202;-47
2022/11/19 04:40:13;;;;;;;2.80;1.40;;;21.40;63.40;;;;;;5030703;28;20193;-46
2022/11/19 04:42:44;;;;;;;1.52;1.42;;;21.40;63.40;;;;;;5030911;28;20362;-47
2022/11/19 04:45:16;;;;;;;2.47;1.40;;;21.40;63.30;;;;;;5031644;28;20200;-46
2022/11/19 04:47:47;;;;;;;2.03;1.30;;;21.40;63.20;;;;;;5030784;28;20200;-48
2022/11/19 04:50:19;;;;;;;3.25;1.55;;;21.40;63.20;;;;;;5031653;28;20208;-46
2022/11/19 04:52:50;;;;;;;2.33;1.30;;;21.40;63.10;;;;;;5031439;28;20651;-46
2022/11/19 04:55:21;;;;;;;1.92;1.40;;;21.40;63.00;;;;;;5031132;28;20682;-45
2022/11/19 04:57:52;;;;;;;2.00;1.50;;;21.40;62.80;;;;;;5031055;28;20284;-47
2022/11/19 05:00:23;;;;;;;1.85;1.40;;;21.40;62.80;;;;;;5031140;28;20719;-47
2022/11/19 05:02:53;;;;;;;1.95;1.50;;;21.40;62.90;;;;;;5030889;28;20224;-47
2022/11/19 05:05:26;;;;;;;2.47;1.70;;;21.50;62.90;;;;;;5030972;28;20536;-46
2022/11/19 05:07:57;;;;;;;1.98;1.48;;;21.50;62.80;;;;;;5030638;28;20667;-47
2022/11/19 05:10:28;;;;;;;2.70;1.52;;;21.50;62.80;;;;;;5030896;28;20192;-46
2022/11/19 05:12:58;;;;;;;1.60;1.45;;;21.50;62.60;;;;;;5030963;28;20208;-48
2022/11/19 05:15:29;;;;;;;1.60;1.40;;;21.50;62.50;;;;;;5030779;28;20240;-47
2022/11/19 05:18:00;;;;;;;2.28;1.50;;;21.50;62.50;;;;;;5030538;28;20196;-47
2022/11/19 05:23:19;;;;;;;3.47;1.70;;;21.50;62.30;;;;;;5128778;27;20933;-45
2022/11/19 05:25:50;;;;;;;2.47;1.70;;;21.50;62.40;;;;;;5129371;27;20218;-49
2022/11/19 05:28:21;;;;;;;2.30;1.38;;;21.50;62.20;;;;;;5126244;27;20526;-48
2022/11/19 05:30:57;;;;;;;1.65;1.17;;;21.50;62.10;;;;;;5129418;27;20193;-46
2022/11/19 05:33:28;;;;;;;2.30;1.45;;;21.50;62.00;;;;;;5129228;27;20571;-48
2022/11/19 05:35:58;;;;;;;2.63;1.52;;;21.50;62.70;;;;;;5129137;27;20192;-45
2022/11/19 05:38:31;;;;;;;1.90;1.40;;;21.50;61.80;;;;;;5129170;27;20287;-48
2022/11/19 05:41:03;;;;;;;1.98;1.30;;;21.50;61.90;;;;;;5129052;27;20219;-47
2022/11/19 05:43:33;;;;;;;2.42;1.40;;;21.50;61.80;;;;;;5129137;27;20193;-46
2022/11/19 05:46:04;;;;;;;2.05;1.50;;;21.50;61.80;;;;;;5088935;27;20209;-47
2022/11/19 05:48:35;;;;;;;1.60;1.15;;;21.50;61.70;;;;;;5088662;28;20273;-50
2022/11/19 05:51:06;;;;;;;2.08;1.38;;;21.50;61.70;;;;;;5088786;28;20245;-46
2022/11/19 05:53:39;;;;;;;2.58;1.70;;;21.50;61.70;;;;;;5089844;28;20198;-46
2022/11/19 05:56:10;;;;;;;2.63;1.30;;;21.50;61.70;;;;;;5107184;28;20226;-46
2022/11/19 05:58:41;;;;;;;2.38;1.60;;;21.50;61.60;;;;;;5108645;28;20654;-46
2022/11/19 06:01:12;;;;;;;2.28;1.50;;;21.50;61.50;;;;;;5107985;28;20271;-48
2022/11/19 06:03:42;;;;;;;2.05;1.40;;;21.50;61.50;;;;;;5107716;28;20645;-45
2022/11/19 06:06:13;;;;;;;3.08;1.58;;;21.50;61.50;;;;;;5108344;28;20193;-47
2022/11/19 06:08:47;;;;;;;2.33;1.48;;;21.50;61.40;;;;;;5108502;28;20677;-47
2022/11/19 06:14:01;;;;;;;1.63;1.35;;;21.50;61.20;;;;;;5107988;28;20632;-47
2022/11/19 06:16:32;;;;;;;1.65;1.20;;;21.50;61.30;;;;;;5108187;28;20190;-47
2022/11/19 06:19:02;;;;;;;1.95;1.50;;;21.50;61.20;;;;;;5107843;28;20197;-45
2022/11/19 06:21:33;;;;;;;1.92;1.30;;;21.50;61.20;;;;;;5108140;28;20225;-47
2022/11/19 06:24:06;;;;;;;1.67;0.95;;;21.50;61.10;;;;;;5108100;28;20251;-46
2022/11/19 06:26:37;;;;;;;2.40;1.67;;;21.50;61.20;;;;;;5108275;28;20204;-47
2022/11/19 06:29:08;;;;;;;1.83;1.40;;;21.50;61.20;;;;;;5107952;28;20197;-45
2022/11/19 06:31:39;;;;;;;2.85;1.90;;;21.50;61.20;;;;;;5107960;28;20229;-47
2022/11/19 06:34:10;;;;;;;2.47;1.52;;;21.50;61.10;;;;;;5096693;28;20200;-49
2022/11/19 06:36:41;;;;;;;2.35;1.35;;;21.50;61.10;;;;;;5094201;28;20545;-46
2022/11/19 06:39:14;;;;;;;2.28;1.67;;;21.50;61.00;;;;;;5094337;28;20198;-48
2022/11/19 06:41:47;;;;;;;2.63;1.58;;;21.50;61.00;;;;;;5094037;28;20275;-48
2022/11/19 06:44:18;;;;;;;2.03;1.45;;;21.50;60.90;;;;;;5094328;28;20310;-49
2022/11/19 06:46:49;;;;;;;2.00;1.27;;;21.50;60.90;;;;;;5093931;28;20209;-46
2022/11/19 06:49:21;;;;;;;2.08;1.48;;;21.50;60.90;;;;;;5094156;28;20638;-48
2022/11/19 06:51:52;;;;;;;2.08;1.50;;;21.50;60.90;;;;;;5093751;28;20697;-45
2022/11/19 06:54:24;;;;;;;3.38;1.40;;;21.50;60.90;;;;;;5093773;28;20351;-47
2022/11/19 06:56:55;;;;;;;2.83;1.42;;;21.40;60.80;;;;;;5093645;28;20553;-45
2022/11/19 06:59:26;;;;;;;1.95;1.35;;;21.40;60.80;;;;;;5094097;28;20670;-47
2022/11/19 07:01:57;;;;;;;3.50;1.70;;;21.40;60.80;;;;;;5093785;28;20682;-45
2022/11/19 07:04:28;;;;;;;2.17;1.50;;;21.40;60.80;;;;;;5093389;28;20251;-47
2022/11/19 07:06:58;;;;;;;2.65;1.65;;;21.40;60.80;;;;;;5093454;28;20220;-51
2022/11/19 07:09:31;;;;;;;3.05;1.63;;;21.40;60.80;;;;;;5093739;28;20202;-47
2022/11/19 07:12:02;;;;;;;2.20;1.60;;;21.40;60.70;;;;;;5092734;28;20577;-46
2022/11/19 07:14:33;;;;;;;1.50;1.33;;;21.40;60.70;;;;;;5093204;28;20221;-47
2022/11/19 07:17:04;;;;;;;2.03;1.27;;;21.40;60.70;;;;;;5093404;28;20190;-47
2022/11/19 07:19:35;;;;;;;2.10;1.30;;;21.40;60.60;;;;;;5093537;28;20649;-47
2022/11/19 07:22:05;;;;;;;3.05;1.55;;;21.40;60.60;;;;;;5093530;28;20229;-45
2022/11/19 07:24:41;;;;;;;3.25;1.70;;;21.40;60.60;;;;;;5093375;28;20380;-46
2022/11/19 07:27:12;;;;;;;2.53;1.30;;;21.40;60.60;;;;;;5093522;28;20213;-47
2022/11/19 07:29:44;;;;;;;1.50;1.30;;;21.30;61.40;;;;;;5095569;28;20557;-45
2022/11/19 07:32:15;;;;;;;1.70;1.25;;;21.30;60.60;;;;;;5095642;28;20217;-49
2022/11/19 07:34:47;;;;;;;2.80;1.20;;;21.40;60.70;;;;;;5092777;28;20596;-45
2022/11/19 07:37:19;;;;;;;2.95;1.38;;;21.30;60.60;;;;;;5092393;28;20859;-46
2022/11/19 07:39:55;;;;;;;2.55;1.50;;;21.30;60.50;;;;;;5075618;28;20198;-52
2022/11/19 07:45:16;;;;;;;1.90;1.35;;;21.30;60.50;;;;;;5084613;28;20209;-52
2022/11/19 07:47:47;;;;;;;3.35;1.63;;;21.30;60.50;;;;;;5093068;28;20190;-50
2022/11/19 07:50:18;;;;;;;2.92;1.42;;;21.30;60.40;;;;;;5093030;28;20262;-46
2022/11/19 07:52:49;;;;;;;2.28;1.58;;;21.30;60.40;;;;;;5092526;28;20274;-45
2022/11/19 07:55:22;;;;;;;2.10;1.40;;;21.30;60.40;;;;;;5092709;28;20212;-53
2022/11/19 07:57:54;;;;;;;1.77;1.42;;;21.30;60.40;;;;;;5092592;28;20198;-50
2022/11/19 08:00:25;;;;;;;2.13;1.50;;;21.30;60.30;;;;;;5092691;28;20221;-44
2022/11/19 08:02:57;;;;;;;3.72;1.60;;;21.30;60.30;;;;;;5092695;28;20742;-46
2022/11/19 08:05:28;;;;;;;3.08;1.58;;;21.20;60.30;;;;;;5092786;28;20263;-48
2022/11/19 08:07:59;;;;;;;1.73;1.45;;;21.20;60.40;;;;;;5092803;28;20201;-46
2022/11/19 08:10:32;;;;;;;2.53;1.60;;;21.20;60.40;;;;;;5092323;28;20198;-45
2022/11/19 08:13:05;;;;;;;2.85;1.40;;;21.20;60.30;;;;;;5092653;28;20533;-45
2022/11/19 08:15:37;;;;;;;2.08;1.27;;;21.20;60.30;;;;;;5076388;28;20202;-52
2022/11/19 08:18:15;;;;;;;1.92;1.48;;;21.20;60.30;;;;;;5071939;28;20203;-46
2022/11/19 08:20:49;;;;;;;1.70;1.40;;;21.20;60.30;;;;;;5071640;28;20198;-46
2022/11/19 08:23:20;;;;;;;1.63;1.17;;;21.20;60.20;;;;;;5072124;28;20230;-47
2022/11/19 08:25:53;;;;;;;2.25;1.15;;;21.20;60.20;;;;;;5071693;28;20195;-48
2022/11/19 08:28:24;;;;;;;1.52;1.23;;;21.20;60.20;;;;;;5071381;28;20198;-49
2022/11/19 08:30:56;;;;;;;2.58;1.50;;;21.20;60.20;;;;;;5071440;28;20195;-45
2022/11/19 08:33:27;;;;;;;2.45;1.45;;;21.20;60.20;;;;;;5076413;28;20217;-47
2022/11/19 08:35:58;;;;;;;2.05;1.23;;;21.20;60.10;;;;;;5071826;28;20199;-49
2022/11/19 08:38:30;;;;;;;3.20;1.42;;;21.10;60.10;;;;;;5072162;28;20199;-48
2022/11/19 08:43:46;;;;;;;1.67;1.30;;;21.10;60.10;;;;;;5071796;28;20305;-46
2022/11/19 08:46:20;;;;;;;2.28;1.30;;;21.10;60.10;;;;;;5091403;28;20646;-45
2022/11/19 08:48:51;;;;;;;1.92;1.13;;;21.10;60.10;;;;;;5088047;28;20427;-46
2022/11/19 08:51:22;;;;;;;1.83;1.50;;;21.10;60.10;;;;;;5083376;28;20616;-46
2022/11/19 08:53:55;;;;;;;2.33;1.42;;;21.10;60.00;;;;;;5092018;28;20202;-46
2022/11/19 08:56:28;;;;;;;1.90;1.45;;;21.10;60.00;;;;;;5091600;28;20190;-45
2022/11/19 08:58:59;;;;;;;2.08;1.55;;;21.10;60.00;;;;;;5091944;28;20205;-46
2022/11/19 09:01:30;;;;;;;2.20;1.25;;;21.10;60.00;;;;;;5091697;28;20218;-47
2022/11/19 09:04:01;;;;;;;2.30;1.55;;;21.10;59.90;;;;;;5091105;28;20230;-46
2022/11/19 09:06:32;;;;;;;2.55;1.67;;;21.10;60.00;;;;;;5091267;28;20194;-48
2022/11/19 09:09:03;;;;;;;3.60;1.70;;;21.10;60.00;;;;;;5086714;28;20244;-49
2022/11/19 09:11:37;;;;;;;3.28;1.92;;;21.10;60.20;;;;;;5084134;28;20206;-46
2022/11/19 09:14:09;;;;;;;2.28;1.70;;;21.10;60.40;;;;;;5090169;28;20601;-46
2022/11/19 09:16:40;;;;;;;6.32;2.05;;;21.10;60.50;;;;;;5090381;28;20186;-57
2022/11/19 09:19:12;;;;;;;4.10;2.00;;;21.10;60.50;;;;;;5090207;28;20194;-58
2022/11/19 09:21:43;;;;;;;2.53;1.60;;;21.00;60.60;;;;;;5090671;28;20222;-51
2022/11/19 09:24:14;;;;;;;3.15;2.00;;;21.10;60.50;;;;;;5090975;28;20222;-53
2022/11/19 09:26:47;;;;;;;3.15;1.83;;;21.10;60.50;;;;;;5090708;28;20190;-55
2022/11/19 09:29:18;;;;;;;3.25;1.90;;;21.10;60.40;;;;;;5090756;28;20874;-60
2022/11/19 09:31:50;;;;;;;4.28;1.98;;;21.10;60.40;;;;;;5090632;28;20232;-59
2022/11/19 09:34:21;;;;;;;5.15;2.00;;;21.10;60.40;;;;;;5090366;28;20567;-54
2022/11/19 09:36:52;;;;;;;3.10;1.90;;;21.10;60.40;;;;;;5090958;28;20187;-52
2022/11/19 09:39:23;;;;;;;3.58;1.88;;;21.10;61.10;;;;;;5108195;28;20199;-46
2022/11/19 09:42:01;;;;;;;3.40;1.92;;;21.10;60.30;;;;;;5098317;28;20595;-45
2022/11/19 09:44:44;;;;;;;4.70;2.08;;;21.10;60.30;;;;;;5083132;28;20230;-47
2022/11/19 09:47:27;;;;;;;6.10;2.55;;;21.10;60.40;;;;;;5082542;28;20277;-46
2022/11/19 09:50:13;;;;;;;3.53;2.15;;;21.00;60.40;;;;;;5091046;28;20226;-45
2022/11/19 09:52:53;;;;;;;3.65;2.40;;;21.00;60.40;;;;;;5090672;28;20209;-45
2022/11/19 09:55:30;;;;;;;5.25;2.67;;;21.00;60.40;;;;;;5090171;28;20201;-47
2022/11/19 09:58:03;;;;;;;4.68;2.35;;;21.00;60.50;;;;;;5090029;28;20200;-46
2022/11/19 10:00:34;;;;;;;4.38;2.30;;;21.10;60.50;;;;;;5089787;28;20229;-48
2022/11/19 10:03:13;;;;;;;5.88;2.90;;;21.10;60.50;;;;;;5090214;28;20244;-44
2022/11/19 10:05:58;;;;;;;3.95;2.38;;;21.00;60.40;;;;;;5090174;28;20190;-45
2022/11/19 10:08:43;;;;;;;3.97;2.33;;;21.00;60.40;;;;;;5091319;28;20565;-46
2022/11/19 10:11:28;;;;;;;4.78;2.30;;;21.00;60.30;;;;;;5093774;28;20225;-60
2022/11/19 10:14:11;;;;;;;4.32;2.42;;;21.10;60.40;;;;;;5091577;28;20701;-52
2022/11/19 10:16:54;;;;;;;3.70;2.42;;;21.10;60.40;;;;;;5079385;28;20182;-61
2022/11/19 10:19:39;;;;;;;4.40;2.90;;;21.00;60.30;;;;;;5094353;28;20194;-60
2022/11/19 10:22:17;;;;;;;4.93;2.90;;;21.00;60.30;;;;;;5094409;28;20229;-62
2022/11/19 10:24:53;;;;;;;4.53;2.90;;;21.00;60.20;;;;;;5093695;28;20205;-57
2022/11/19 10:27:28;;;;;;;4.38;2.70;;;21.00;60.30;;;;;;5093696;28;20197;-53
2022/11/19 10:30:05;;;;;;;5.80;3.05;;;21.00;60.30;;;;;;5093976;28;20194;-45
2022/11/19 10:32:40;;;;;;;6.82;3.03;;;20.90;60.30;;;;;;5093713;28;20254;-51
2022/11/19 10:35:17;;;;;;;5.05;3.13;;;21.00;60.40;;;;;;5094251;28;20198;-51
2022/11/19 10:37:54;;;;;;;4.65;3.08;;;20.90;60.40;;;;;;5092693;28;20201;-47
2022/11/19 10:40:30;;;;;;;4.43;2.70;;;20.90;60.30;;;;;;5093041;28;20205;-60
2022/11/19 10:43:16;;;;;;;4.47;2.60;;;21.00;60.40;;;;;;5094007;28;20218;-45
2022/11/19 10:45:48;;;;;;;4.18;2.80;;;20.90;60.30;;;;;;5075494;28;20607;-50
2022/11/19 10:48:24;;;;;;;4.35;2.70;;;20.90;60.20;;;;;;5073799;28;20701;-49
2022/11/19 10:50:56;;;;;;;4.88;2.88;;;20.90;60.10;;;;;;5074437;28;20202;-47
2022/11/19 10:53:31;;;;;;;4.47;2.47;;;21.00;60.20;;;;;;5073902;28;20230;-48
2022/11/19 10:56:05;;;;;;;4.20;2.53;;;20.90;60.10;;;;;;5073446;28;20186;-49
2022/11/19 10:58:39;;;;;;;4.32;2.58;;;20.90;60.20;;;;;;5073907;28;20681;-44
2022/11/19 11:01:17;;;;;;;5.32;2.90;;;20.90;60.20;;;;;;5074385;28;20218;-48
2022/11/19 11:03:51;;;;;;;4.22;2.83;;;20.90;60.10;;;;;;5073498;28;20233;-45
2022/11/19 11:06:22;;;;;;;4.65;3.13;;;20.90;60.20;;;;;;5073750;28;20209;-48
2022/11/19 11:08:54;;;;;;;4.50;3.03;;;20.90;60.20;;;;;;5073850;28;20651;-45
2022/11/19 11:14:50;;;;;;;5.97;3.13;;;20.90;60.20;;;;;;5073674;28;20215;-47
2022/11/19 11:17:20;;;;;;;4.20;2.70;;;20.90;60.20;;;;;;5072771;28;20634;-47
2022/11/19 11:20:00;;;;;;;4.32;2.80;;;20.90;60.20;;;;;;5073334;28;20190;-51
2022/11/19 11:22:32;;;;;;;4.65;3.00;;;20.90;60.10;;;;;;5073029;28;20634;-45
2022/11/19 11:25:03;;;;;;;3.85;2.45;;;20.90;60.10;;;;;;5072913;28;20277;-51
2022/11/19 11:27:35;;;;;;;4.13;2.50;;;20.90;60.10;;;;;;5073105;28;20195;-48
2022/11/19 11:30:18;;;;;;;4.18;2.35;;;20.90;60.10;;;;;;5073291;28;20201;-46
2022/11/19 11:32:50;;;;;;;4.25;2.67;;;20.90;60.20;;;;;;5072681;28;20218;-45
2022/11/19 11:35:36;;;;;;;3.72;2.70;;;20.80;60.00;;;;;;5072609;28;20194;-51
2022/11/19 11:38:08;;;;;;;3.72;2.55;;;20.80;60.00;;;;;;5072519;28;20217;-49
2022/11/19 11:40:39;;;;;;;3.17;2.22;;;20.80;60.00;;;;;;5073034;28;20202;-49
2022/11/19 11:43:17;;;;;;;4.20;2.63;;;20.80;60.00;;;;;;5078538;28;20214;-46
2022/11/19 11:45:48;;;;;;;3.38;2.42;;;20.80;60.10;;;;;;5092347;28;20194;-48
2022/11/19 11:48:24;;;;;;;3.85;2.63;;;20.80;60.10;;;;;;5092839;28;20202;-45
2022/11/19 11:50:54;;;;;;;3.38;2.47;;;20.80;60.10;;;;;;5103483;28;20189;-47
2022/11/19 11:53:32;;;;;;;4.07;2.65;;;20.80;60.10;;;;;;5113134;28;20537;-45
2022/11/19 11:56:04;;;;;;;3.42;2.38;;;20.80;60.10;;;;;;5113042;28;20193;-44
2022/11/19 11:58:35;;;;;;;4.25;2.90;;;20.80;60.10;;;;;;5113274;28;20672;-49
2022/11/19 12:01:18;;;;;;;4.22;2.50;;;20.80;60.00;;;;;;5113412;28;20217;-47
2022/11/19 12:03:57;;;;;;;4.00;2.50;;;20.80;60.00;;;;;;5112916;28;20278;-45
2022/11/19 12:06:34;;;;;;;4.55;2.30;;;20.80;60.00;;;;;;5113061;28;20645;-45
2022/11/19 12:09:12;;;;;;;3.28;2.50;;;20.80;60.00;;;;;;5112529;28;20559;-45
2022/11/19 12:11:56;;;;;;;3.65;2.30;;;20.70;59.90;;;;;;5112751;28;20216;-47
2022/11/19 12:14:31;;;;;;;4.22;2.28;;;20.70;60.00;;;;;;5098258;28;20199;-53
2022/11/19 12:17:18;;;;;;;3.90;2.60;;;20.70;59.90;;;;;;5071873;28;20206;-50
2022/11/19 12:20:04;;;;;;;3.75;2.60;;;20.70;60.00;;;;;;5071510;28;20195;-48
2022/11/19 12:22:47;;;;;;;3.80;2.42;;;20.70;60.00;;;;;;5071557;28;20222;-45
2022/11/19 12:25:33;;;;;;;2.92;2.17;;;20.70;60.00;;;;;;5071872;28;20227;-48
2022/11/19 12:28:29;;;;;;;3.08;2.10;;;20.70;59.90;;;;;;5072333;28;20557;-46
2022/11/19 12:31:12;;;;;;;3.90;2.33;;;20.70;59.90;;;;;;5071027;28;20202;-45
2022/11/19 12:34:00;;;;;;;3.10;2.08;;;20.70;60.00;;;;;;5071226;28;20203;-46
2022/11/19 12:36:47;;;;;;;2.05;1.83;;;20.70;60.00;;;;;;5071204;28;20557;-48
2022/11/19 12:39:31;;;;;;;3.60;2.10;;;20.70;60.00;;;;;;5071377;28;20573;-46
2022/11/19 12:42:29;;;;;;;3.17;2.28;;;20.70;59.90;;;;;;5071757;28;20214;-47
2022/11/19 12:45:07;;;;;;;3.28;1.90;;;20.60;59.90;;;;;;5069385;28;20227;-50
2022/11/19 12:48:00;;;;;;;2.70;2.00;;;20.60;60.60;;;;;;5071840;28;20244;-49
2022/11/19 12:50:37;;;;;;;3.00;2.10;;;20.60;59.90;;;;;;5072098;28;20201;-46
2022/11/19 12:53:27;;;;;;;2.38;2.17;;;20.60;60.00;;;;;;5071840;28;20244;-46
2022/11/19 12:56:11;;;;;;;2.90;1.77;;;20.60;60.00;;;;;;5071445;28;20198;-47
2022/11/19 12:58:48;;;;;;;2.55;2.08;;;20.60;59.90;;;;;;5071376;28;20557;-44
2022/11/19 13:01:22;;;;;;;4.38;2.45;;;20.60;59.90;;;;;;5071588;28;20222;-46
2022/11/19 13:04:03;;;;;;;2.00;1.80;;;20.60;59.90;;;;;;5071273;28;20223;-48
2022/11/19 13:06:39;;;;;;;3.33;2.10;;;20.60;59.90;;;;;;5071554;28;20563;-44
2022/11/19 13:09:19;;;;;;;4.00;2.00;;;20.60;60.00;;;;;;5071231;28;20689;-46
2022/11/19 13:11:55;;;;;;;2.42;2.03;;;20.60;59.90;;;;;;5070545;28;20226;-49
2022/11/19 13:14:33;;;;;;;4.07;2.20;;;20.60;60.00;;;;;;5070816;28;20202;-48
2022/11/19 13:17:07;;;;;;;3.10;1.90;;;20.60;60.00;;;;;;5070871;28;20194;-46
2022/11/19 13:19:39;;;;;;;2.58;2.00;;;20.60;60.00;;;;;;5071239;28;20252;-45
2022/11/19 13:22:17;;;;;;;3.65;1.90;;;20.60;60.00;;;;;;5071208;28;20234;-46
2022/11/19 13:24:54;;;;;;;2.78;1.90;;;20.50;59.90;;;;;;5071027;28;20270;-45
2022/11/19 13:27:28;;;;;;;2.55;2.00;;;20.50;59.90;;;;;;5071201;28;20221;-45
2022/11/19 13:30:03;;;;;;;3.00;1.90;;;20.50;59.90;;;;;;5071031;28;20217;-48
2022/11/19 13:32:40;;;;;;;3.20;2.03;;;20.50;60.00;;;;;;5071057;28;20214;-47
2022/11/19 13:35:21;;;;;;;2.15;1.75;;;20.50;60.00;;;;;;5071157;28;20194;-47
2022/11/19 13:38:01;;;;;;;2.47;1.70;;;20.50;59.90;;;;;;5081697;28;20190;-45
2022/11/19 13:40:38;;;;;;;2.13;1.70;;;20.50;59.90;;;;;;5091110;28;20201;-47
2022/11/19 13:46:10;;;;;;;3.05;2.03;;;20.50;59.90;;;;;;5083018;28;20218;-46
2022/11/19 13:48:44;;;;;;;2.17;1.60;;;20.50;59.80;;;;;;5094482;28;20209;-45
2022/11/19 13:51:30;;;;;;;2.80;1.80;;;20.50;59.80;;;;;;5096022;28;20221;-45
2022/11/19 13:54:02;;;;;;;3.40;2.00;;;20.50;59.90;;;;;;5095226;28;20197;-47